Morgantown Municipal Walter L. Bill Hart Field
KMGW : rendu visible

Aérodrome :











RETROUVEZ-NOUS SUR...

 
LOGIN :

S'inscrire | Disclaimer

   EN    FR    IT 

 









Légende :    VFR   VFR Marginal   IFR   IFR Intensif   IFR Très Intensif
Visi : 
Plafond : 
>= 8 km
>= 3000ft
5 à 8 km
1000 à 3000 ft
1500m à 5 km
500 à 1000 ft
800 à 1500m
200 à 500 ft
< 800m
< 200 ft
Symboles :   Orages  Brouillard  Fortes neiges  Fortes précipitations  Vent > 20 kt






- Altitude de l'aérodrome : 1248 ft
- Code IATA : MGW


KMGW - Morgantown Municipal Walter L. Bill Hart Field

DERNIER METAR :
  • 190253Z 31005KT 10SM SCT085 OVC110 06/02 A3017 RMK AO2 SLP218 60006 T00610017 53036

METARs EXPIRÉS :
  • 190153Z VRB05KT 10SM FEW014 BKN047 OVC075 07/04 A3014 RMK AO2 RAE47 SLP207 P0003 T00720044
  • 190053Z 32003KT 8SM -RA FEW011 BKN033 OVC049 08/06 A3009 RMK AO2 RAB31 PRESRR SLP190 P0003 T00830061
  • 190030Z 33005KT 9SM FEW007 BKN013 OVC019 09/08 A3007 RMK AO2 P0001 T00940078

TAF KMGW
Valide du 19 à 03h jusqu'au 20 à 00h UTC


190242Z 1903/1924 32008KT P6SM SCT025 BKN050
FM191800 31005KT P6SM SCT040



MET'MAP, la Météo Aéronautique d'un coup d'oeil ! - Copyright ORBIFLY Décembre 2007 - Disclaimer

ORBIFLY MET'MAP TEAM :

Programmation & Développement : Alexandra Zaïnal
Sur une idée originale de : Baudouin d'Aumeries
Assistance à la programmation : Marc-Olivier Méhu
Soutien technique & logistique : Manuel Goepfert

Contact : metmap@orbifly.com




SOURCES & CREDITS :

   NOAA       Earth
Advisory